Карточка аэропорта USTR

Внимание!
Информация на этой странице в стадии наполнения.
Если вы не увидели какой-то информации, или заметили неточность - пожалуйста сообщите нам!
Спасибо!
Команда RU-STAFF
Название аэропортаРощино
Название аэропорта (англ.)Roshschino
Превышение378 ft. (115.2 m.)
Координаты57°10.098', 65°19.002'
Высота перехода700m
Эшелон переходаFL040
Коды ответчика5101-5137
Зона ОрВДТюмень РПИ (USTV)
Данные METARUSTR 042100Z 07004MPS 9999 -SHSN BKN029CB M11/M13 Q1036 R30/390035 R21/494030 TEMPO 05007G12MPS 1000 SHSN BLSN VV004
Проноз погоды (TAF)USTR 041948Z 0421/0521 05006G13MPS 2100 -SHSN BLSN BKN005 BKN011CB TEMPO 0421/0424 04005MPS 1000 SHSN BR VV003 FM050000 06005MPS 2100 -SHSN BR BKN005 BKN011CB TEMPO 0500/0505 07004MPS 0300 FZFG VV002 FM050600 06003G08MPS 6000 FEW005 SCT020 BECMG 0511/0513 VRB01MPS
NOTAMshow/hide NOTAM
AWOS   TABLE

Информация о ВПП

ВПП Длина ВПП (м.) Покрытие Курс ВПП Частота ILS
033003Асфальтобетон34108.3
122704Асфальтобетон121 
213003Асфальтобетон214110.7
302704Асфальтобетон301 

Диспетчерские позиции

Позывной Наименование органа УВД Частота
USTR_TWRТюмень-Старт118.200
USTR_GNDТюмень-Руление119.000
USTR_R_APPТюмень-Круг126.100



Спутниковое изображение